Time;durP1;ratioP1;P1;durP2;ratioP2;P2;SDS_P1;SDS_P2;PMS_P1;PMS_P2;Temp;Humidity;BMP_temperature;BMP_pressure;BME280_temperature;BME280_humidity;BME280_pressure;Samples;Min_cycle;Max_cycle;Signal;HPM_P1;HPM_P2
2020/12/12 00:02:24;;;;;;;4.10;1.15;;;20.70;69.30;;;;;;5045970;28;20045;-68
2020/12/12 00:05:20;;;;;;;3.70;1.25;;;20.70;69.30;;;;;;5047418;28;20021;-71
2020/12/12 00:07:54;;;;;;;4.65;1.42;;;20.70;69.30;;;;;;5025790;28;20127;-70
2020/12/12 00:10:26;;;;;;;1.17;1.00;;;20.70;69.40;;;;;;5047192;28;20041;-69
2020/12/12 00:12:59;;;;;;;4.25;1.00;;;20.70;69.30;;;;;;5046670;28;20043;-70
2020/12/12 00:15:31;;;;;;;1.92;1.10;;;20.70;69.30;;;;;;5045295;28;20025;-68
2020/12/12 00:18:07;;;;;;;2.38;0.82;;;20.60;69.30;;;;;;5047969;28;20074;-69
2020/12/12 00:21:00;;;;;;;2.63;1.10;;;20.60;69.40;;;;;;5040117;28;20538;-70
2020/12/12 00:23:31;;;;;;;2.97;2.10;;;20.60;69.60;;;;;;5045062;28;20710;-69
2020/12/12 00:26:01;;;;;;;4.53;2.17;;;20.60;69.70;;;;;;5045847;28;20021;-70
2020/12/12 00:28:31;;;;;;;3.78;1.73;;;20.60;69.80;;;;;;5046508;28;20500;-70
2020/12/12 00:30:59;;;;;;;3.13;1.60;;;20.60;69.80;;;;;;5042319;28;20051;-67
2020/12/12 00:33:25;;;;;;;2.75;1.52;;;20.60;69.90;;;;;;5047235;28;20463;-67
2020/12/12 00:35:52;;;;;;;4.38;2.08;;;20.70;70.00;;;;;;5047072;28;20363;-68
2020/12/12 00:38:18;;;;;;;4.65;1.95;;;20.60;70.10;;;;;;5047224;28;20043;-67
2020/12/12 00:40:45;;;;;;;3.53;1.42;;;20.60;70.10;;;;;;5047507;28;20040;-67
2020/12/12 00:43:23;;;;;;;8.02;1.85;;;20.70;70.20;;;;;;5046670;28;20507;-70
2020/12/12 00:45:59;;;;;;;4.80;2.33;;;20.60;70.10;;;;;;5046108;28;20029;-71
2020/12/12 00:49:07;;;;;;;8.98;1.55;;;20.60;70.10;;;;;;5047450;28;20380;-69
2020/12/12 00:51:36;;;;;;;6.93;1.50;;;20.60;70.00;;;;;;5043037;28;20055;-70
2020/12/12 00:54:04;;;;;;;4.53;1.60;;;20.60;70.10;;;;;;5046147;28;20021;-69
2020/12/12 00:56:58;;;;;;;6.65;1.60;;;20.60;70.10;;;;;;5045983;28;20040;-69
2020/12/12 00:59:25;;;;;;;3.65;1.23;;;20.60;70.20;;;;;;5046788;28;20391;-69
2020/12/12 01:02:09;;;;;;;6.15;2.13;;;20.60;70.20;;;;;;5047906;28;20025;-70
2020/12/12 01:04:41;;;;;;;9.52;2.35;;;20.60;70.40;;;;;;5044960;28;20025;-68
2020/12/12 01:07:16;;;;;;;8.82;1.95;;;20.60;70.30;;;;;;5029959;28;20032;-70
2020/12/12 01:09:51;;;;;;;;;;;20.60;70.40;;;;;;5045716;28;20029;-69
2020/12/12 01:12:38;;;;;;;5.67;2.40;;;20.60;70.40;;;;;;5047000;28;19915;-70
2020/12/12 01:15:49;;;;;;;7.18;1.65;;;20.60;70.50;;;;;;5056683;28;20021;-70
2020/12/12 01:18:21;;;;;;;7.35;1.52;;;20.60;70.60;;;;;;4988221;28;20415;-69
2020/12/12 01:20:52;;;;;;;11.38;1.65;;;20.60;70.70;;;;;;5040864;28;20556;-70
2020/12/12 01:23:47;;;;;;;3.75;1.40;;;20.60;70.80;;;;;;5051379;28;20029;-69
2020/12/12 01:26:14;;;;;;;3.30;0.90;;;20.60;70.90;;;;;;5048683;28;20025;-70
2020/12/12 01:28:41;;;;;;;7.22;1.27;;;20.60;71.00;;;;;;5051585;28;20128;-67
2020/12/12 01:31:11;;;;;;;6.50;2.90;;;20.60;71.10;;;;;;5050043;28;20029;-69
2020/12/12 01:33:38;;;;;;;4.65;1.88;;;20.50;71.10;;;;;;5050287;28;20029;-69
2020/12/12 01:36:06;;;;;;;5.72;1.50;;;20.60;71.20;;;;;;5049505;28;20132;-68
2020/12/12 01:38:34;;;;;;;6.05;2.15;;;20.60;71.30;;;;;;5051870;28;20014;-68
2020/12/12 01:41:00;;;;;;;4.80;1.88;;;20.50;71.20;;;;;;5049893;28;20099;-70
2020/12/12 01:43:27;;;;;;;6.55;2.60;;;20.50;71.20;;;;;;5049851;28;20037;-68
2020/12/12 01:45:54;;;;;;;6.93;2.30;;;20.60;71.50;;;;;;5049123;28;20033;-67
2020/12/12 01:48:21;;;;;;;4.85;2.65;;;20.50;71.40;;;;;;5049455;28;20514;-67
2020/12/12 01:50:48;;;;;;;4.47;2.67;;;20.50;71.40;;;;;;5050599;28;20511;-69
2020/12/12 01:53:17;;;;;;;6.22;2.30;;;20.50;71.40;;;;;;5049407;28;20380;-69
2020/12/12 01:55:47;;;;;;;4.28;2.22;;;20.50;71.40;;;;;;5050417;28;20028;-68
2020/12/12 01:58:16;;;;;;;5.35;1.77;;;20.40;71.30;;;;;;5050459;28;20365;-70
2020/12/12 02:00:42;;;;;;;2.53;1.80;;;20.40;71.20;;;;;;5050118;28;20033;-69
2020/12/12 02:03:13;;;;;;;4.97;2.30;;;20.40;71.10;;;;;;5051194;28;20116;-68
2020/12/12 02:05:45;;;;;;;2.70;1.75;;;20.40;71.10;;;;;;5049711;28;20021;-69
2020/12/12 02:08:16;;;;;;;6.28;2.78;;;20.40;71.10;;;;;;5049334;28;20044;-69
2020/12/12 02:10:50;;;;;;;4.50;2.17;;;20.40;71.00;;;;;;5048085;28;20507;-69
2020/12/12 02:13:18;;;;;;;11.20;2.30;;;20.30;71.00;;;;;;5050459;28;20024;-70
2020/12/12 02:15:45;;;;;;;5.95;1.98;;;20.30;70.90;;;;;;5050437;28;20534;-69
2020/12/12 02:18:20;;;;;;;3.28;2.20;;;20.30;70.80;;;;;;5049507;28;20392;-68
2020/12/12 02:20:55;;;;;;;3.65;2.15;;;20.20;70.70;;;;;;5050584;28;20118;-68
2020/12/12 02:23:22;;;;;;;6.20;1.93;;;20.20;70.70;;;;;;5049353;28;20021;-69
2020/12/12 02:25:49;;;;;;;5.38;2.50;;;20.30;70.30;;;;;;5048447;28;20790;-69
2020/12/12 02:28:19;;;;;;;6.72;3.67;;;20.20;70.80;;;;;;5048796;28;20435;-68
2020/12/12 02:30:46;;;;;;;3.03;2.47;;;20.20;70.90;;;;;;5049840;28;20017;-68
2020/12/12 02:33:13;;;;;;;6.32;2.15;;;20.10;70.90;;;;;;5050930;28;20341;-70
2020/12/12 02:35:39;;;;;;;3.75;2.83;;;20.10;71.40;;;;;;5049350;28;20108;-70
2020/12/12 02:38:06;;;;;;;3.90;2.58;;;20.10;70.90;;;;;;5049306;28;20033;-70
2020/12/12 02:40:32;;;;;;;7.22;2.72;;;20.10;70.90;;;;;;5049131;28;20048;-69
2020/12/12 02:43:01;;;;;;;5.22;2.42;;;20.10;70.80;;;;;;5049105;28;20105;-68
2020/12/12 02:45:28;;;;;;;6.72;2.08;;;20.10;70.80;;;;;;5045051;28;20056;-69
2020/12/12 02:47:55;;;;;;;4.72;2.33;;;20.10;70.80;;;;;;5049377;28;20029;-69
2020/12/12 02:50:26;;;;;;;5.95;2.00;;;20.00;70.60;;;;;;5049584;28;21914;-69
2020/12/12 02:52:54;;;;;;;3.67;2.30;;;20.00;70.50;;;;;;5046866;28;20021;-69
2020/12/12 02:55:21;;;;;;;2.15;1.67;;;20.00;70.40;;;;;;5049074;28;20029;-69
2020/12/12 02:57:48;;;;;;;3.10;1.75;;;20.00;70.40;;;;;;5049307;28;20454;-69
2020/12/12 03:00:48;;;;;;;4.75;2.10;;;19.90;70.40;;;;;;5047709;28;20402;-68
2020/12/12 03:03:14;;;;;;;5.25;2.20;;;20.00;70.30;;;;;;5048276;28;20077;-68
2020/12/12 03:05:41;;;;;;;4.15;1.60;;;20.00;70.20;;;;;;5049899;28;20499;-69
2020/12/12 03:08:07;;;;;;;4.28;1.85;;;19.90;70.10;;;;;;5048838;28;20617;-69
2020/12/12 03:10:34;;;;;;;14.30;11.35;;;19.90;70.10;;;;;;5045983;28;20029;-68
2020/12/12 03:13:00;;;;;;;30.73;25.48;;;19.90;70.10;;;;;;5049875;28;20043;-68
2020/12/12 03:15:27;;;;;;;23.20;20.75;;;19.90;70.70;;;;;;5048120;28;20033;-69
2020/12/12 03:17:56;;;;;;;20.33;13.57;;;19.90;70.10;;;;;;5049045;28;20024;-69
2020/12/12 03:20:23;;;;;;;11.93;9.43;;;19.90;70.20;;;;;;5047329;28;20033;-69
2020/12/12 03:22:50;;;;;;;8.35;6.22;;;19.90;70.30;;;;;;5048164;28;20036;-68
2020/12/12 03:25:17;;;;;;;9.00;4.70;;;19.90;70.40;;;;;;5048631;28;20103;-70
2020/12/12 03:27:43;;;;;;;8.57;3.63;;;19.90;70.50;;;;;;5046726;28;20024;-69
2020/12/12 03:30:10;;;;;;;7.85;2.88;;;19.90;70.60;;;;;;5049337;28;20023;-68
2020/12/12 03:32:36;;;;;;;5.03;2.53;;;19.90;70.60;;;;;;5046453;28;20025;-69
2020/12/12 03:35:03;;;;;;;6.35;2.00;;;19.90;70.70;;;;;;5049088;28;20396;-68
2020/12/12 03:37:29;;;;;;;7.43;1.80;;;19.80;70.70;;;;;;5046361;28;20017;-69
2020/12/12 03:39:56;;;;;;;3.25;1.58;;;19.80;70.80;;;;;;5047262;28;20095;-69
2020/12/12 03:42:22;;;;;;;6.53;2.17;;;19.80;70.80;;;;;;5048173;28;20041;-70
2020/12/12 03:44:49;;;;;;;2.40;1.50;;;19.80;70.80;;;;;;5046343;28;20036;-71
2020/12/12 03:47:15;;;;;;;4.45;1.67;;;19.80;70.80;;;;;;5047340;28;20466;-69
2020/12/12 03:49:42;;;;;;;7.93;5.78;;;19.80;70.70;;;;;;5048515;28;20017;-70
2020/12/12 03:52:08;;;;;;;23.73;19.20;;;19.80;70.70;;;;;;5048003;28;20330;-69
2020/12/12 03:54:35;;;;;;;24.10;17.08;;;19.80;70.80;;;;;;5047611;28;20071;-71
2020/12/12 03:57:01;;;;;;;15.10;11.63;;;19.80;70.80;;;;;;5047373;28;20388;-70
2020/12/12 03:59:28;;;;;;;9.38;8.38;;;19.80;70.90;;;;;;5046110;28;20013;-70
2020/12/12 04:01:55;;;;;;;16.05;7.22;;;19.80;70.90;;;;;;5047888;28;20037;-67
2020/12/12 04:04:21;;;;;;;8.23;5.32;;;19.80;71.00;;;;;;5048045;28;20009;-70
2020/12/12 06:43:33;;;;;;;6.45;2.60;;;20.20;71.60;;;;;;5145206;27;20420;-68
2020/12/12 06:46:09;;;;;;;10.38;3.22;;;20.70;68.70;;;;;;5136403;27;20376;-70
2020/12/12 06:48:36;;;;;;;4.68;1.92;;;20.70;68.50;;;;;;5138411;27;20461;-67
2020/12/12 06:51:03;;;;;;;4.85;1.77;;;20.80;68.00;;;;;;5140616;27;20473;-74
2020/12/12 06:53:31;;;;;;;5.43;2.20;;;20.90;67.60;;;;;;5136938;27;20410;-67
2020/12/12 06:56:16;;;;;;;11.35;2.15;;;20.90;67.30;;;;;;5139576;27;20023;-67
2020/12/12 06:58:44;;;;;;;7.45;1.58;;;21.00;66.90;;;;;;5137834;27;20015;-69
2020/12/12 07:01:30;;;;;;;4.43;1.70;;;21.00;66.80;;;;;;5140940;27;20480;-68
2020/12/12 07:04:04;;;;;;;8.15;1.27;;;21.10;66.40;;;;;;5134545;27;20126;-70
2020/12/12 07:06:34;;;;;;;3.83;1.42;;;21.10;66.10;;;;;;5136417;27;20019;-68
2020/12/12 07:09:07;;;;;;;3.80;1.48;;;21.10;65.80;;;;;;5141248;27;20083;-72
2020/12/12 07:11:34;;;;;;;2.63;1.20;;;21.20;65.50;;;;;;5133925;27;20553;-68
2020/12/12 07:14:01;;;;;;;6.38;1.60;;;21.20;65.30;;;;;;5137736;27;20022;-68
2020/12/12 07:16:29;;;;;;;5.55;2.05;;;21.30;65.20;;;;;;5134883;27;20019;-68
2020/12/12 07:18:56;;;;;;;4.30;1.35;;;21.30;64.90;;;;;;5136020;27;20019;-68
2020/12/12 07:21:22;;;;;;;6.93;1.60;;;21.40;64.80;;;;;;5142076;27;20031;-75
2020/12/12 07:23:50;;;;;;;4.75;1.42;;;21.40;64.60;;;;;;5139072;27;20047;-74
2020/12/12 07:26:17;;;;;;;3.83;0.90;;;21.50;64.10;;;;;;5135880;27;20019;-75
2020/12/12 07:28:43;;;;;;;4.00;0.68;;;21.50;64.00;;;;;;5136744;27;20111;-68
2020/12/12 07:31:10;;;;;;;1.92;0.80;;;21.60;63.70;;;;;;5139213;27;20024;-69
2020/12/12 07:33:37;;;;;;;3.53;1.02;;;21.60;63.10;;;;;;5142759;27;20027;-76
2020/12/12 07:36:03;;;;;;;3.60;0.90;;;21.70;62.80;;;;;;5138126;27;20016;-70
2020/12/12 07:38:30;;;;;;;1.38;0.70;;;21.70;62.60;;;;;;5141453;27;20015;-79
2020/12/12 07:40:56;;;;;;;3.08;1.02;;;21.70;62.50;;;;;;5139852;27;20476;-75
2020/12/12 07:43:23;;;;;;;2.45;0.93;;;21.80;62.40;;;;;;5120339;27;20024;-70
2020/12/12 07:48:22;;;;;;;4.47;0.90;;;21.80;61.80;;;;;;5126627;27;20477;-69
2020/12/12 07:50:49;;;;;;;2.95;1.10;;;21.80;61.50;;;;;;5125468;27;20385;-72
2020/12/12 07:53:17;;;;;;;6.53;1.88;;;21.90;61.00;;;;;;5125080;27;20023;-70
2020/12/12 07:55:58;;;;;;;5.05;1.23;;;21.90;60.40;;;;;;5127995;27;20023;-70
2020/12/12 07:58:27;;;;;;;6.88;1.40;;;22.00;59.40;;;;;;5126878;27;20020;-69
2020/12/12 08:01:04;;;;;;;8.55;1.40;;;22.00;59.30;;;;;;5128499;27;20066;-69
2020/12/12 08:03:31;;;;;;;4.63;1.70;;;22.10;58.90;;;;;;5124530;27;20027;-68
2020/12/12 08:06:08;;;;;;;5.53;1.10;;;22.10;58.40;;;;;;5107834;27;20034;-69
2020/12/12 08:08:36;;;;;;;3.33;1.75;;;22.20;58.20;;;;;;5120746;27;20115;-68
2020/12/12 08:11:04;;;;;;;8.40;1.77;;;22.30;58.10;;;;;;5124549;27;20058;-73
2020/12/12 08:13:31;;;;;;;6.57;1.70;;;22.30;57.90;;;;;;5123044;27;20044;-76
2020/12/12 08:16:21;;;;;;;5.25;1.10;;;22.30;57.80;;;;;;5118941;27;20020;-68
2020/12/12 08:18:47;;;;;;;5.18;1.48;;;22.40;57.60;;;;;;5120437;27;20020;-69
2020/12/12 08:21:19;;;;;;;4.97;1.30;;;22.40;57.40;;;;;;5122763;27;20027;-68
2020/12/12 08:23:46;;;;;;;6.47;1.90;;;22.50;57.10;;;;;;5122503;27;20088;-77
2020/12/12 08:26:20;;;;;;;5.03;1.20;;;22.50;56.60;;;;;;5127970;27;20024;-68
2020/12/12 08:28:47;;;;;;;4.07;1.58;;;22.60;56.30;;;;;;5120436;27;20023;-67
2020/12/12 08:31:16;;;;;;;1.70;1.00;;;22.60;56.10;;;;;;5125211;27;20035;-69
2020/12/12 08:33:45;;;;;;;3.78;1.30;;;22.70;56.10;;;;;;5123556;27;20048;-72
2020/12/12 08:36:23;;;;;;;3.00;1.33;;;22.70;55.80;;;;;;5118287;27;20488;-77
2020/12/12 08:38:55;;;;;;;4.43;2.00;;;22.80;55.70;;;;;;5123920;27;20023;-75
2020/12/12 08:41:51;;;;;;;6.03;1.38;;;22.80;55.80;;;;;;5120934;27;20070;-68
2020/12/12 08:44:24;;;;;;;6.45;1.20;;;22.90;55.80;;;;;;5102313;27;20046;-70
2020/12/12 08:46:54;;;;;;;3.70;2.10;;;23.00;55.80;;;;;;5121604;27;20106;-68
2020/12/12 08:49:21;;;;;;;4.63;1.67;;;23.00;55.50;;;;;;5120281;27;20015;-70
2020/12/12 08:51:53;;;;;;;4.00;1.10;;;23.10;55.50;;;;;;5120841;27;20151;-79
2020/12/12 08:54:20;;;;;;;5.60;1.63;;;23.10;55.30;;;;;;5120301;27;20019;-74
2020/12/12 08:56:46;;;;;;;4.15;1.83;;;23.20;55.30;;;;;;5121618;27;20027;-80
2020/12/12 08:59:20;;;;;;;5.13;1.77;;;23.30;54.60;;;;;;5120031;27;20027;-70
2020/12/12 09:01:48;;;;;;;6.15;1.08;;;23.30;54.60;;;;;;5120566;27;20072;-72
2020/12/12 09:04:22;;;;;;;7.40;1.33;;;23.30;54.40;;;;;;5123352;27;20020;-74
2020/12/12 09:06:59;;;;;;;6.15;1.52;;;23.40;54.10;;;;;;5124021;27;20475;-74
2020/12/12 09:09:29;;;;;;;6.03;1.95;;;23.40;53.90;;;;;;5124799;27;20793;-78
2020/12/12 09:12:16;;;;;;;10.93;1.20;;;23.50;53.80;;;;;;5114986;27;20057;-75
2020/12/12 09:15:22;;;;;;;4.22;1.30;;;23.60;53.50;;;;;;5118082;27;20202;-72
2020/12/12 09:18:28;;;;;;;6.22;2.40;;;23.60;53.50;;;;;;5119618;27;20112;-73
2020/12/12 09:21:34;;;;;;;4.50;1.80;;;23.60;53.40;;;;;;5120658;27;20093;-71
2020/12/12 09:24:40;;;;;;;12.27;1.83;;;23.70;53.20;;;;;;5120584;27;20608;-73
2020/12/12 09:27:46;;;;;;;5.18;1.10;;;23.90;52.80;;;;;;5126707;27;20106;-72
2020/12/12 09:30:52;;;;;;;4.05;1.63;;;24.20;51.80;;;;;;5124838;27;20028;-74
2020/12/12 09:33:58;;;;;;;10.50;2.50;;;24.40;50.20;;;;;;5122579;27;20023;-71
2020/12/12 09:37:04;;;;;;;8.32;1.30;;;24.60;50.10;;;;;;5122175;27;20019;-72
2020/12/12 09:40:10;;;;;;;4.38;1.33;;;24.70;49.60;;;;;;5122565;27;20024;-70
2020/12/12 09:43:17;;;;;;;8.13;2.60;;;24.80;48.40;;;;;;5121266;27;20028;-68
2020/12/12 09:46:23;;;;;;;5.50;1.55;;;24.90;48.90;;;;;;5121041;27;20485;-69
2020/12/12 09:49:29;;;;;;;6.22;1.77;;;25.00;48.00;;;;;;5126158;27;20035;-68
2020/12/12 09:52:35;;;;;;;7.60;4.38;;;25.00;47.30;;;;;;5121842;27;20023;-69
2020/12/12 09:55:41;;;;;;;12.60;6.15;;;25.00;47.30;;;;;;5105933;27;20102;-68
2020/12/12 09:58:27;;;;;;;;;;;25.00;47.70;;;;;;5121973;27;20393;-69
2020/12/12 10:01:35;;;;;;;4.85;1.50;;;24.90;47.90;;;;;;5120664;27;19958;-69
2020/12/12 10:04:21;;;;;;;;;;;24.90;47.70;;;;;;5123183;27;20035;-69
2020/12/12 10:07:27;;;;;;;11.23;2.92;;;25.00;48.00;;;;;;5114476;27;19984;-69
2020/12/12 10:10:33;;;;;;;6.22;1.40;;;25.10;47.30;;;;;;5121744;27;20027;-69
2020/12/12 10:13:19;;;;;;;;;;;25.20;47.00;;;;;;5120393;27;20031;-69
2020/12/12 10:16:26;;;;;;;3.63;1.35;;;25.30;46.50;;;;;;5119358;27;19904;-69
2020/12/12 10:19:32;;;;;;;5.82;1.50;;;25.30;47.00;;;;;;5118519;27;20032;-68
2020/12/12 10:22:18;;;;;;;;;;;25.40;45.80;;;;;;5118241;28;20574;-73
2020/12/12 10:25:24;;;;;;;6.28;1.20;;;25.30;46.40;;;;;;5117160;27;19962;-71
2020/12/12 10:28:10;;;;;;;;;;;25.30;47.40;;;;;;5124196;27;20027;-71
2020/12/12 10:31:16;;;;;;;16.10;3.13;;;25.20;47.10;;;;;;5106603;28;19908;-70
2020/12/12 10:34:02;;;;;;;;;;;25.10;47.70;;;;;;5118546;28;20026;-69
2020/12/12 10:36:46;;;;;;;24.45;4.05;;;25.10;47.90;;;;;;5120662;28;20319;-69
2020/12/12 10:39:14;;;;;;;53.80;5.97;;;25.10;48.10;;;;;;5117606;27;20409;-70
2020/12/12 10:41:40;;;;;;;211.27;21.42;;;25.20;47.60;;;;;;5120468;28;20131;-70
2020/12/12 10:44:07;;;;;;;415.15;44.58;;;25.20;48.00;;;;;;5125503;28;20011;-69
2020/12/12 10:46:34;;;;;;;113.40;12.32;;;25.20;48.00;;;;;;5119956;27;20031;-69
2020/12/12 10:49:01;;;;;;;65.55;7.22;;;25.20;48.00;;;;;;5125895;28;20046;-70
2020/12/12 10:51:28;;;;;;;54.90;7.90;;;25.20;48.00;;;;;;5118748;28;20026;-68
2020/12/12 10:53:56;;;;;;;57.17;6.07;;;25.20;48.00;;;;;;5120060;28;20502;-69
2020/12/12 10:56:22;;;;;;;26.40;5.38;;;25.30;48.30;;;;;;5103801;28;20043;-69
2020/12/12 10:58:49;;;;;;;27.67;4.13;;;25.40;48.10;;;;;;5123367;27;20353;-71
2020/12/12 11:01:15;;;;;;;10.27;1.63;;;25.40;47.90;;;;;;5123827;28;20066;-68
2020/12/12 11:03:42;;;;;;;57.30;5.18;;;25.70;46.50;;;;;;5120826;27;20023;-68
2020/12/12 11:06:11;;;;;;;57.08;8.57;;;25.80;46.50;;;;;;5119315;27;20046;-68
2020/12/12 11:08:38;;;;;;;30.98;2.83;;;26.00;46.70;;;;;;5119861;28;20019;-68
2020/12/12 11:11:04;;;;;;;24.08;2.63;;;26.10;46.50;;;;;;5121878;27;20062;-67
2020/12/12 11:13:31;;;;;;;44.00;4.88;;;26.20;46.20;;;;;;5119491;28;20027;-68
2020/12/12 11:15:57;;;;;;;24.88;4.95;;;26.20;46.10;;;;;;5116286;28;20490;-69
2020/12/12 11:18:24;;;;;;;22.80;2.30;;;26.20;46.00;;;;;;5124230;27;20031;-69
2020/12/12 11:20:50;;;;;;;16.67;3.47;;;26.20;46.10;;;;;;5125012;27;20031;-68
2020/12/12 11:23:17;;;;;;;17.65;2.63;;;26.20;45.90;;;;;;5123249;27;20477;-68
2020/12/12 11:25:43;;;;;;;9.88;1.73;;;26.20;45.70;;;;;;5125888;27;20059;-68
2020/12/12 11:28:09;;;;;;;14.13;2.28;;;26.20;45.60;;;;;;5121742;27;20027;-68
2020/12/12 11:30:37;;;;;;;6.57;1.63;;;26.20;45.70;;;;;;5126301;27;20018;-67
2020/12/12 11:33:05;;;;;;;4.55;1.33;;;26.10;44.90;;;;;;5125027;27;20127;-68
2020/12/12 11:36:07;;;;;;;3.20;1.35;;;26.10;44.00;;;;;;5122174;27;20069;-69
2020/12/12 11:46:25;;;;;;;3.45;1.27;;;26.20;45.00;;;;;;5125905;27;20039;-68
2020/12/12 11:48:52;;;;;;;7.18;3.95;;;26.20;44.90;;;;;;5122278;27;20036;-69
2020/12/12 11:51:21;;;;;;;4.60;2.20;;;26.30;45.00;;;;;;5121284;27;20031;-67
2020/12/12 11:53:48;;;;;;;4.00;1.50;;;26.30;45.10;;;;;;5122906;27;20069;-68
2020/12/12 11:56:19;;;;;;;5.00;1.45;;;26.30;44.30;;;;;;5127940;27;20034;-70
2020/12/12 11:58:45;;;;;;;3.58;1.25;;;26.30;43.10;;;;;;5122209;27;20593;-68
2020/12/12 12:01:52;;;;;;;3.60;1.08;;;26.30;43.30;;;;;;5124148;27;20167;-67
2020/12/12 12:04:58;;;;;;;3.33;1.15;;;26.40;43.50;;;;;;5118426;27;20071;-70
2020/12/12 14:32:05;;;;;;;17.23;8.25;;;26.70;40.20;;;;;;5123826;27;21014;-69
2020/12/12 14:34:32;;;;;;;19.67;12.90;;;26.90;40.90;;;;;;5099412;28;20031;-74
2020/12/12 14:36:58;;;;;;;9.90;8.20;;;26.90;41.10;;;;;;5101137;28;20016;-71
2020/12/12 14:39:25;;;;;;;23.15;11.75;;;26.90;41.10;;;;;;5103995;28;20107;-71
2020/12/12 14:41:55;;;;;;;14.52;7.93;;;26.90;41.00;;;;;;5099292;28;20016;-70
2020/12/12 14:44:22;;;;;;;14.80;10.45;;;27.00;41.00;;;;;;5100763;28;20048;-74
2020/12/12 14:46:52;;;;;;;34.47;22.05;;;27.00;40.80;;;;;;5101391;28;20056;-70
2020/12/12 14:49:19;;;;;;;75.03;59.33;;;27.00;40.60;;;;;;5106429;28;20022;-72
2020/12/12 14:51:45;;;;;;;50.25;41.55;;;27.00;40.60;;;;;;5102221;28;20101;-71
2020/12/12 14:54:51;;;;;;;30.10;19.27;;;27.00;40.60;;;;;;5099969;28;20048;-71
2020/12/12 14:57:58;;;;;;;101.82;84.82;;;27.00;40.10;;;;;;5103225;28;20544;-72
2020/12/12 15:01:04;;;;;;;117.32;100.32;;;26.90;40.10;;;;;;5101595;28;20040;-71
2020/12/12 15:04:10;;;;;;;79.28;65.85;;;26.90;40.50;;;;;;5103770;28;20012;-72
2020/12/12 15:07:16;;;;;;;55.28;46.90;;;26.80;40.50;;;;;;5101471;28;20020;-70
2020/12/12 15:10:25;;;;;;;35.58;28.02;;;26.80;40.60;;;;;;5098907;28;20088;-70
2020/12/12 15:13:31;;;;;;;43.33;37.20;;;26.80;40.40;;;;;;5100999;28;20378;-70
2020/12/12 15:16:37;;;;;;;39.88;30.98;;;26.80;40.00;;;;;;5100504;28;20099;-70
2020/12/12 15:19:43;;;;;;;27.25;23.33;;;26.70;40.00;;;;;;5099557;28;20560;-71
2020/12/12 15:22:49;;;;;;;17.42;12.77;;;26.70;40.20;;;;;;5101624;28;20026;-71
2020/12/12 15:25:55;;;;;;;18.48;13.15;;;26.70;40.10;;;;;;5099268;28;20032;-72
2020/12/12 15:29:01;;;;;;;12.25;10.07;;;26.70;40.10;;;;;;5101187;28;20114;-71
2020/12/12 15:32:09;;;;;;;17.25;8.50;;;26.60;40.20;;;;;;5095775;28;20040;-71
2020/12/12 15:35:15;;;;;;;5.30;4.00;;;26.60;40.30;;;;;;5085188;28;20111;-73
2020/12/12 15:38:21;;;;;;;11.68;4.20;;;26.60;40.10;;;;;;5087698;28;20024;-75
2020/12/12 15:41:28;;;;;;;3.60;3.00;;;26.50;39.70;;;;;;5088205;28;20028;-71
2020/12/12 15:44:34;;;;;;;4.95;2.78;;;26.50;40.60;;;;;;5086570;28;20040;-71
2020/12/12 15:47:40;;;;;;;8.00;3.63;;;26.50;39.90;;;;;;5084600;28;20024;-72
2020/12/12 15:50:46;;;;;;;6.82;2.60;;;26.50;39.70;;;;;;5087760;28;20028;-71
2020/12/12 15:53:52;;;;;;;5.68;2.40;;;26.40;39.60;;;;;;5086369;28;20028;-71
2020/12/12 15:56:59;;;;;;;4.53;2.28;;;26.40;39.50;;;;;;5085753;28;20042;-71
2020/12/12 16:00:05;;;;;;;3.35;1.27;;;26.30;39.60;;;;;;5086364;28;20384;-71
2020/12/12 16:03:11;;;;;;;11.57;10.48;;;26.30;39.90;;;;;;5088658;28;20063;-74
2020/12/12 16:06:17;;;;;;;10.88;4.35;;;26.20;39.70;;;;;;5088208;28;20046;-69
2020/12/12 16:09:23;;;;;;;9.70;1.98;;;26.20;40.00;;;;;;5088201;28;20020;-71
2020/12/12 16:12:10;;;;;;;;;;;26.20;40.10;;;;;;5087354;28;20706;-72
2020/12/12 16:15:16;;;;;;;5.43;1.60;;;26.10;39.70;;;;;;5086683;28;19908;-71
2020/12/12 16:18:02;;;;;;;;;;;26.10;39.80;;;;;;5084121;28;20077;-70
2020/12/12 16:21:08;;;;;;;2.67;1.42;;;26.00;39.80;;;;;;5086370;28;19916;-70
2020/12/12 16:24:14;;;;;;;4.05;1.58;;;26.00;40.00;;;;;;5077924;28;20077;-70
2020/12/12 16:27:20;;;;;;;3.75;1.95;;;26.00;40.00;;;;;;5086697;28;20112;-70
2020/12/12 16:30:06;;;;;;;;;;;26.00;39.80;;;;;;5076588;28;20074;-71
2020/12/12 16:32:52;;;;;;;;;;;25.90;40.20;;;;;;5079342;28;19908;-69
2020/12/12 16:35:58;;;;;;;8.05;3.33;;;25.90;39.60;;;;;;5080505;28;19969;-71
2020/12/12 16:39:04;;;;;;;9.35;3.83;;;25.80;39.70;;;;;;5077648;28;20092;-70
2020/12/12 16:41:50;;;;;;;;;;;25.80;39.70;;;;;;5079785;28;20036;-70
2020/12/12 16:44:56;;;;;;;3.83;1.67;;;25.70;39.80;;;;;;5078202;28;19973;-70
2020/12/12 16:47:42;;;;;;;;;;;25.60;39.80;;;;;;5076872;28;20398;-71
2020/12/12 16:50:49;;;;;;;1.90;1.35;;;25.60;39.90;;;;;;5081246;28;19909;-71
2020/12/12 16:53:57;;;;;;;7.20;1.70;;;25.60;40.00;;;;;;5079411;28;20024;-69
2020/12/12 16:57:03;;;;;;;4.63;1.90;;;25.50;40.00;;;;;;5078101;28;20086;-72
2020/12/12 17:00:10;;;;;;;3.28;1.90;;;25.50;40.00;;;;;;5082051;28;20061;-70
2020/12/12 17:03:16;;;;;;;7.65;2.40;;;25.50;40.00;;;;;;5078513;28;20024;-70
2020/12/12 17:06:23;;;;;;;5.95;2.97;;;25.40;40.10;;;;;;5082446;28;20035;-69
2020/12/12 17:09:31;;;;;;;6.00;1.67;;;25.40;40.20;;;;;;5085695;28;20062;-69
2020/12/12 17:12:38;;;;;;;6.30;1.98;;;25.30;40.20;;;;;;5086709;28;20552;-69
2020/12/12 17:15:46;;;;;;;5.55;1.83;;;25.30;40.30;;;;;;5088433;28;20036;-69
2020/12/12 17:18:52;;;;;;;5.63;3.58;;;25.20;40.50;;;;;;5079707;28;20031;-70
2020/12/12 17:21:42;;;;;;;;;;;25.10;40.80;;;;;;5084591;28;20521;-70
2020/12/12 17:24:48;;;;;;;7.22;2.53;;;25.00;41.00;;;;;;5085984;28;19911;-71
2020/12/12 17:27:34;;;;;;;;;;;25.00;41.40;;;;;;5087452;28;20523;-70
2020/12/12 17:30:40;;;;;;;3.67;1.90;;;25.00;41.70;;;;;;5087231;28;19923;-70
2020/12/12 17:33:31;;;;;;;;;;;25.00;42.00;;;;;;5084544;28;20034;-70
2020/12/12 17:36:37;;;;;;;4.03;1.63;;;24.90;42.30;;;;;;5084719;28;20373;-71
2020/12/12 17:39:43;;;;;;;3.63;2.95;;;24.80;42.70;;;;;;5083147;28;20024;-71
2020/12/12 17:42:49;;;;;;;8.93;2.67;;;24.80;43.00;;;;;;5085268;28;20049;-71
2020/12/12 17:45:35;;;;;;;;;;;24.80;43.40;;;;;;5085838;28;20019;-70
2020/12/12 17:48:41;;;;;;;7.18;2.33;;;24.80;43.70;;;;;;5081933;28;19923;-70
2020/12/12 17:51:51;;;;;;;3.10;1.73;;;24.70;43.90;;;;;;5084663;28;20035;-70
2020/12/12 17:54:57;;;;;;;3.60;1.35;;;24.70;44.20;;;;;;5082956;28;20475;-69
2020/12/12 17:58:03;;;;;;;3.03;1.52;;;24.70;44.60;;;;;;5085692;28;20020;-70
2020/12/12 18:00:49;;;;;;;;;;;24.60;45.30;;;;;;5084040;28;20048;-70
2020/12/12 18:03:55;;;;;;;7.53;1.50;;;24.60;45.90;;;;;;5086558;28;19909;-71
2020/12/12 18:06:41;;;;;;;;;;;24.60;47.00;;;;;;5084838;28;20493;-70
2020/12/12 18:09:47;;;;;;;9.35;1.77;;;24.60;47.30;;;;;;5079114;28;19914;-71
2020/12/12 18:12:54;;;;;;;5.93;2.03;;;24.60;48.00;;;;;;5083030;28;20016;-70
2020/12/12 18:16:01;;;;;;;6.97;3.35;;;24.50;48.30;;;;;;5088428;28;20048;-70
2020/12/12 18:19:08;;;;;;;4.38;1.85;;;24.50;49.00;;;;;;5084756;28;20016;-71
2020/12/12 18:22:15;;;;;;;7.22;2.25;;;24.40;49.40;;;;;;5079368;28;20910;-72
2020/12/12 18:25:22;;;;;;;4.15;1.85;;;24.40;49.80;;;;;;5077789;28;20028;-70
2020/12/12 18:28:28;;;;;;;3.65;1.75;;;24.40;50.30;;;;;;5076429;28;20114;-70
2020/12/12 18:31:35;;;;;;;2.83;1.55;;;24.30;50.10;;;;;;5075566;28;20151;-71
2020/12/12 18:34:41;;;;;;;2.60;1.40;;;24.30;50.10;;;;;;5078632;28;20103;-70
2020/12/12 18:37:27;;;;;;;;;;;24.30;50.50;;;;;;5079245;28;20421;-71
2020/12/12 18:40:33;;;;;;;4.18;1.80;;;24.30;50.70;;;;;;5077066;28;20770;-72
2020/12/12 18:43:40;;;;;;;5.68;3.45;;;24.30;50.80;;;;;;5078670;28;20115;-70
2020/12/12 18:46:26;;;;;;;;;;;24.30;50.90;;;;;;5079788;28;20032;-74
2020/12/12 18:49:32;;;;;;;5.22;3.30;;;24.20;51.10;;;;;;5077240;28;19935;-70
2020/12/12 18:52:38;;;;;;;6.82;2.75;;;24.20;51.20;;;;;;5076405;28;20044;-71
2020/12/12 18:55:24;;;;;;;;;;;24.20;51.30;;;;;;5080343;28;20073;-72
2020/12/12 18:58:31;;;;;;;7.65;1.85;;;24.10;52.00;;;;;;5078902;28;19912;-71
2020/12/12 19:01:37;;;;;;;3.65;2.20;;;24.10;51.50;;;;;;5076391;28;20031;-71
2020/12/12 19:04:43;;;;;;;6.60;1.73;;;24.10;51.80;;;;;;5076013;28;20016;-70
2020/12/12 19:07:51;;;;;;;8.50;2.45;;;24.00;52.00;;;;;;5078024;28;20024;-72
2020/12/12 19:10:57;;;;;;;4.10;1.58;;;24.00;52.20;;;;;;5079825;28;20024;-70
2020/12/12 19:13:43;;;;;;;;;;;23.90;52.30;;;;;;5083085;28;20166;-70
2020/12/12 19:16:49;;;;;;;5.18;1.90;;;23.90;52.60;;;;;;5081056;28;19908;-72
2020/12/12 19:19:56;;;;;;;5.32;2.03;;;23.90;52.70;;;;;;5081776;28;20406;-72
2020/12/12 19:23:02;;;;;;;5.18;2.25;;;23.90;52.90;;;;;;5078524;28;20090;-70